Endeavor, Wisconsin
Current Conditions -  °F | °C
As of 9:55 PM on Sunday 23 Nov 2014 (Local Time) from KDLL Reporting Station
Drizzle Drizzle  
Wind Chill: 46°   Ceiling: 400
Heat Index: 46°   Visibility: 0.5mi
Dew Point: 44°   Wind: 0mph
Humidity: 95%   Direction: NA
Pressure: 29.19"   Gusts: NA
Location:  43.72°N, 89.47°W
Report Text: KDLL 240355Z AUTO 00000KT 1/2SM DZ OVC004 08/07 A2919 RMK AO2 T00750068
Loading
Personal Weather Stations






























Interactive Weather Map New forecast layout! Learn more

10-Day Weather Forecast

Advertisements
Track Severe Weather on mobile